createdAt,value
2023-01-26T00:01:08.392Z,7.32
2023-01-26T00:03:35.691Z,9.27
2023-01-26T00:06:04.287Z,7.75
2023-01-26T00:08:31.615Z,8.48
2023-01-26T00:11:03.570Z,9.63
2023-01-26T00:13:32.766Z,10.07
2023-01-26T00:15:59.776Z,9.75
2023-01-26T00:18:27.160Z,9.20
2023-01-26T00:20:55.979Z,8.75
2023-01-26T00:23:23.136Z,7.78
2023-01-26T00:25:50.154Z,8.48
2023-01-26T00:28:19.904Z,8.00
2023-01-26T00:30:46.855Z,7.68
2023-01-26T00:33:14.160Z,8.05
2023-01-26T00:35:44.469Z,8.55
2023-01-26T00:38:12.256Z,8.85
2023-01-26T00:40:39.215Z,7.60
2023-01-26T00:43:06.759Z,8.68
2023-01-26T00:45:36.143Z,8.18
2023-01-26T00:48:03.333Z,7.88
2023-01-26T00:50:30.273Z,8.02
2023-01-26T00:52:57.796Z,8.38
2023-01-26T00:55:25.024Z,7.43
2023-01-26T00:57:52.218Z,7.22
2023-01-26T01:00:20.330Z,7.70
2023-01-26T01:02:48.917Z,8.80
2023-01-26T01:05:16.243Z,9.30
2023-01-26T01:07:44.259Z,9.02
2023-01-26T01:10:11.673Z,8.50
2023-01-26T01:12:39.293Z,8.10
2023-01-26T01:15:07.528Z,7.40
2023-01-26T01:17:36.481Z,7.57
2023-01-26T01:20:06.100Z,7.55
2023-01-26T01:22:33.475Z,7.47
2023-01-26T01:25:00.591Z,7.90
2023-01-26T01:27:27.825Z,7.38
2023-01-26T01:29:54.926Z,7.25
2023-01-26T01:32:22.191Z,7.22
2023-01-26T01:34:49.485Z,7.22
2023-01-26T01:37:18.279Z,7.47
2023-01-26T01:39:45.465Z,7.43
2023-01-26T01:42:12.824Z,7.00
2023-01-26T01:44:40.463Z,7.20
2023-01-26T01:47:12.810Z,7.00
2023-01-26T01:49:45.947Z,7.65
2023-01-26T01:52:17.753Z,7.40
2023-01-26T01:54:51.533Z,7.20
2023-01-26T01:57:27.763Z,7.70
2023-01-26T02:00:00.649Z,7.70
2023-01-26T02:02:28.676Z,9.10
2023-01-26T02:05:00.164Z,8.15
2023-01-26T02:07:30.418Z,7.82
2023-01-26T02:10:18.484Z,8.55
2023-01-26T02:12:47.547Z,7.90
2023-01-26T02:15:15.466Z,9.23
2023-01-26T02:17:42.786Z,10.30
2023-01-26T02:20:20.251Z,11.38
2023-01-26T02:22:55.462Z,14.85
2023-01-26T02:25:31.729Z,11.75
2023-01-26T02:28:01.479Z,10.60
2023-01-26T02:30:29.239Z,10.20
2023-01-26T02:32:56.597Z,9.30
2023-01-26T02:35:23.562Z,9.77
2023-01-26T02:37:50.972Z,8.55
2023-01-26T02:40:25.997Z,9.80
2023-01-26T02:42:55.152Z,10.20
2023-01-26T02:45:26.389Z,9.93
2023-01-26T02:47:53.753Z,9.70
2023-01-26T02:50:21.013Z,9.43
2023-01-26T02:52:48.488Z,9.63
2023-01-26T02:55:28.535Z,9.07
2023-01-26T02:57:58.260Z,9.02
2023-01-26T03:00:28.706Z,9.30
2023-01-26T03:02:58.608Z,8.95
2023-01-26T03:05:25.820Z,8.60
2023-01-26T03:07:53.128Z,8.60
2023-01-26T03:10:20.569Z,8.77
2023-01-26T03:12:47.875Z,7.50
2023-01-26T03:15:33.636Z,8.40
2023-01-26T03:18:26.683Z,9.77
2023-01-26T03:21:11.969Z,9.38
2023-01-26T03:23:57.994Z,9.43
2023-01-26T03:26:43.488Z,8.27
2023-01-26T03:29:10.663Z,7.60
2023-01-26T03:31:37.671Z,8.15
2023-01-26T03:34:06.508Z,8.35
2023-01-26T03:36:33.481Z,8.68
2023-01-26T03:39:00.585Z,8.60
2023-01-26T03:41:46.253Z,8.02
2023-01-26T03:44:32.494Z,7.38
2023-01-26T03:47:19.220Z,7.45
2023-01-26T03:50:06.342Z,7.50
2023-01-26T03:52:51.746Z,7.53
2023-01-26T03:55:37.541Z,7.53
2023-01-26T03:58:04.396Z,7.22
2023-01-26T04:00:31.655Z,8.10
2023-01-26T04:03:17.321Z,7.80
2023-01-26T04:06:16.493Z,8.95
2023-01-26T04:08:44.749Z,8.80
2023-01-26T04:11:12.524Z,9.82
2023-01-26T04:13:58.364Z,10.15
2023-01-26T04:16:44.158Z,10.00
2023-01-26T04:19:29.512Z,10.10
2023-01-26T04:21:59.124Z,9.82
2023-01-26T04:24:26.241Z,9.63
2023-01-26T04:26:53.399Z,8.95
2023-01-26T04:29:20.299Z,9.10
2023-01-26T04:31:47.628Z,9.73
2023-01-26T04:34:15.800Z,7.55
2023-01-26T04:36:43.941Z,7.65
2023-01-26T04:39:12.434Z,6.57
2023-01-26T04:41:42.183Z,6.85
2023-01-26T04:44:09.480Z,7.43
2023-01-26T04:46:36.702Z,6.15
2023-01-26T04:49:03.986Z,7.45
2023-01-26T04:51:31.270Z,7.95
2023-01-26T04:53:58.369Z,8.02
2023-01-26T04:56:29.838Z,8.55
2023-01-26T04:58:59.095Z,8.45
2023-01-26T05:01:26.546Z,7.88
2023-01-26T05:03:54.504Z,8.98
2023-01-26T05:06:21.968Z,11.65
2023-01-26T05:08:49.119Z,9.20
2023-01-26T05:11:16.354Z,9.05
2023-01-26T05:13:46.419Z,8.10
2023-01-26T05:16:14.510Z,7.45
2023-01-26T05:18:41.735Z,7.43
2023-01-26T05:21:09.646Z,7.80
2023-01-26T05:23:36.729Z,6.65
2023-01-26T05:26:04.587Z,7.63
2023-01-26T05:28:31.619Z,7.00
2023-01-26T05:31:00.365Z,6.60
2023-01-26T05:33:27.718Z,6.18
2023-01-26T05:35:55.103Z,6.65
2023-01-26T05:38:22.435Z,6.05
2023-01-26T05:40:49.662Z,6.65
2023-01-26T05:43:16.571Z,16.05
2023-01-26T05:45:44.194Z,7.95
2023-01-26T05:48:12.565Z,6.75
2023-01-26T05:50:39.757Z,6.53
2023-01-26T05:53:06.907Z,6.13
2023-01-26T05:55:34.241Z,6.60
2023-01-26T05:58:01.197Z,6.70
2023-01-26T06:00:28.464Z,6.15
2023-01-26T06:02:55.448Z,6.15
2023-01-26T06:05:24.098Z,6.15
2023-01-26T06:07:51.006Z,6.97
2023-01-26T06:10:18.357Z,6.30
2023-01-26T06:12:45.327Z,6.43
2023-01-26T06:15:12.775Z,6.28
2023-01-26T06:17:40.091Z,5.90
2023-01-26T06:20:08.799Z,6.03
2023-01-26T06:22:37.168Z,6.18
2023-01-26T06:25:05.476Z,6.60
2023-01-26T06:27:32.377Z,5.97
2023-01-26T06:29:59.789Z,6.40
2023-01-26T06:32:27.975Z,6.05
2023-01-26T06:34:55.262Z,6.53
2023-01-26T06:37:22.261Z,7.13
2023-01-26T06:39:50.863Z,6.68
2023-01-26T06:42:17.782Z,6.20
2023-01-26T06:44:44.926Z,6.95
2023-01-26T06:47:13.163Z,7.10
2023-01-26T06:49:40.345Z,6.15
2023-01-26T06:52:25.308Z,6.82
2023-01-26T06:54:54.440Z,6.18
2023-01-26T06:57:22.471Z,6.75
2023-01-26T06:59:49.857Z,7.22
2023-01-26T07:02:18.874Z,7.28
2023-01-26T07:04:46.731Z,6.40
2023-01-26T07:07:13.788Z,6.43
2023-01-26T07:09:41.472Z,6.68
2023-01-26T07:12:09.747Z,6.45
2023-01-26T07:14:37.027Z,8.05
2023-01-26T07:17:04.054Z,7.15
2023-01-26T07:19:33.208Z,8.05
2023-01-26T07:22:00.448Z,7.22
2023-01-26T07:24:27.979Z,6.93
2023-01-26T07:26:55.512Z,7.32
2023-01-26T07:29:24.384Z,6.53
2023-01-26T07:31:51.634Z,7.18
2023-01-26T07:34:19.911Z,6.72
2023-01-26T07:36:46.834Z,6.72
2023-01-26T07:39:14.053Z,6.63
2023-01-26T07:41:41.060Z,7.25
2023-01-26T07:44:10.428Z,5.82
2023-01-26T07:46:38.890Z,6.38
2023-01-26T07:49:06.146Z,7.18
2023-01-26T07:51:33.474Z,7.28
2023-01-26T07:54:00.772Z,6.43
2023-01-26T07:56:27.818Z,6.72
2023-01-26T07:58:55.186Z,7.15
2023-01-26T08:01:22.908Z,6.90
2023-01-26T08:03:53.658Z,7.57
2023-01-26T08:06:21.385Z,6.40
2023-01-26T08:08:53.932Z,7.53
2023-01-26T08:11:23.496Z,6.78
2023-01-26T08:13:50.858Z,7.10
2023-01-26T08:16:17.931Z,6.53
2023-01-26T08:18:46.774Z,6.72
2023-01-26T08:21:16.997Z,7.25
2023-01-26T08:23:49.000Z,5.97
2023-01-26T08:26:18.046Z,7.47
2023-01-26T08:28:46.246Z,6.20
2023-01-26T08:31:15.273Z,6.78
2023-01-26T08:33:43.640Z,6.82
2023-01-26T08:36:12.858Z,7.50
2023-01-26T08:38:42.234Z,6.97
2023-01-26T08:43:37.009Z,7.18
2023-01-26T08:46:04.688Z,12.25
2023-01-26T08:48:32.105Z,8.32
2023-01-26T08:51:00.927Z,6.43
2023-01-26T08:56:01.626Z,6.22
2023-01-26T08:58:29.683Z,7.20
2023-01-26T09:00:56.626Z,7.40
2023-01-26T09:03:24.078Z,7.53
2023-01-26T09:05:51.122Z,8.60
2023-01-26T09:08:18.509Z,7.72
2023-01-26T09:10:45.397Z,7.78
2023-01-26T09:13:14.064Z,7.32
2023-01-26T09:15:41.143Z,6.28
2023-01-26T09:18:09.499Z,6.63
2023-01-26T09:20:37.878Z,6.40
2023-01-26T09:23:05.411Z,6.68
2023-01-26T09:25:32.373Z,5.30
2023-01-26T09:27:59.631Z,5.82
2023-01-26T09:30:28.169Z,6.38
2023-01-26T09:32:58.573Z,6.15
2023-01-26T09:35:25.638Z,6.55
2023-01-26T09:37:52.993Z,8.52
2023-01-26T09:40:24.094Z,5.05
2023-01-26T09:43:11.658Z,5.88
2023-01-26T09:45:51.094Z,5.05
2023-01-26T09:48:27.727Z,4.78
2023-01-26T09:51:00.289Z,5.70
2023-01-26T09:53:41.708Z,6.95
2023-01-26T09:56:17.404Z,5.43
2023-01-26T09:58:47.258Z,4.32
2023-01-26T10:01:20.829Z,4.18
2023-01-26T10:03:55.340Z,4.80
2023-01-26T10:06:29.511Z,5.78
2023-01-26T10:09:00.594Z,5.20
2023-01-26T10:11:32.324Z,5.18
2023-01-26T10:14:03.443Z,6.20
2023-01-26T10:16:33.520Z,6.50
2023-01-26T10:19:04.210Z,6.40
2023-01-26T10:21:34.030Z,6.40
2023-01-26T10:24:03.254Z,6.15
2023-01-26T10:28:58.238Z,5.93
2023-01-26T10:31:41.476Z,6.68
2023-01-26T10:34:13.705Z,5.97
2023-01-26T10:36:42.542Z,5.63
2023-01-26T10:41:38.105Z,6.10
2023-01-26T10:44:25.595Z,6.90
2023-01-26T10:47:06.011Z,5.78
2023-01-26T10:49:33.275Z,6.13
2023-01-26T10:52:09.188Z,6.05
2023-01-26T10:54:38.164Z,6.15
2023-01-26T10:57:17.026Z,6.38
2023-01-26T10:59:50.377Z,6.35
2023-01-26T11:02:28.012Z,6.90
2023-01-26T11:05:15.844Z,5.82
2023-01-26T11:07:45.720Z,5.90
2023-01-26T11:10:28.264Z,6.72
2023-01-26T11:13:14.820Z,5.63
2023-01-26T11:15:46.279Z,5.50
2023-01-26T11:18:26.823Z,6.13
2023-01-26T11:20:59.948Z,5.35
2023-01-26T11:23:43.225Z,5.30
2023-01-26T11:26:48.016Z,5.03
2023-01-26T11:29:54.530Z,6.18
2023-01-26T11:32:30.464Z,6.07
2023-01-26T11:35:13.304Z,5.95
2023-01-26T11:37:46.097Z,4.97
2023-01-26T11:40:26.308Z,5.40
2023-01-26T11:43:08.478Z,5.80
2023-01-26T11:45:46.495Z,5.72
2023-01-26T11:48:25.125Z,5.55
2023-01-26T11:50:57.809Z,6.30
2023-01-26T11:53:45.403Z,6.22
2023-01-26T11:56:25.925Z,5.80
2023-01-26T11:58:58.436Z,5.95
2023-01-26T12:01:29.870Z,6.00
2023-01-26T12:03:57.861Z,6.88
2023-01-26T12:06:31.923Z,6.07
2023-01-26T12:09:03.606Z,5.53
2023-01-26T12:11:35.518Z,5.40
2023-01-26T12:14:12.161Z,4.97
2023-01-26T12:16:49.884Z,6.38
2023-01-26T12:19:31.812Z,5.38
2023-01-26T12:22:05.801Z,5.65
2023-01-26T12:25:04.826Z,6.57
2023-01-26T12:27:29.657Z,6.20
2023-01-26T12:30:04.744Z,7.25
2023-01-26T12:32:33.250Z,6.57
2023-01-26T12:35:00.848Z,6.10
2023-01-26T12:38:03.059Z,5.40
2023-01-26T12:40:52.343Z,5.57
2023-01-26T12:43:29.227Z,6.45
2023-01-26T12:46:00.608Z,5.78
2023-01-26T12:48:38.652Z,8.98
2023-01-26T12:51:10.803Z,6.35
2023-01-26T12:53:49.416Z,5.18
2023-01-26T12:56:22.219Z,5.32
2023-01-26T12:58:51.568Z,5.72
2023-01-26T13:01:22.126Z,5.60
2023-01-26T13:03:54.119Z,6.07
2023-01-26T13:06:24.701Z,5.95
2023-01-26T13:09:05.903Z,6.63
2023-01-26T13:11:47.930Z,5.78
2023-01-26T13:14:31.774Z,5.40
2023-01-26T13:17:48.744Z,5.10
2023-01-26T13:20:44.365Z,5.07
2023-01-26T13:23:41.209Z,5.57
2023-01-26T13:26:18.625Z,5.55
2023-01-26T13:28:48.344Z,5.13
2023-01-26T13:31:31.343Z,5.32
2023-01-26T13:34:01.207Z,5.03
2023-01-26T13:36:35.065Z,5.50
2023-01-26T13:39:10.528Z,4.97
2023-01-26T13:41:46.378Z,5.18
2023-01-26T13:44:17.557Z,5.35
2023-01-26T13:46:49.669Z,4.90
2023-01-26T13:49:27.616Z,5.05
2023-01-26T13:51:56.113Z,5.47
2023-01-26T13:54:26.782Z,5.60
2023-01-26T13:57:04.184Z,5.57
2023-01-26T13:59:33.197Z,5.72
2023-01-26T14:02:00.472Z,5.97
2023-01-26T14:04:31.694Z,6.25
2023-01-26T14:07:02.940Z,6.65
2023-01-26T14:09:33.086Z,6.50
2023-01-26T14:12:03.853Z,6.05
2023-01-26T14:14:33.655Z,5.72
2023-01-26T14:17:01.616Z,5.85
2023-01-26T14:19:29.702Z,6.07
2023-01-26T14:22:00.089Z,5.95
2023-01-26T14:24:32.985Z,6.03
2023-01-26T14:27:02.249Z,5.93
2023-01-26T14:29:31.155Z,5.68
2023-01-26T14:31:59.872Z,6.07
2023-01-26T14:34:29.286Z,6.38
2023-01-26T14:37:13.926Z,6.40
2023-01-26T14:39:44.827Z,5.95
2023-01-26T14:42:14.803Z,6.45
2023-01-26T14:44:42.384Z,5.90
2023-01-26T14:47:18.178Z,5.50
2023-01-26T14:49:50.425Z,6.20
2023-01-26T14:52:27.082Z,7.00
2023-01-26T14:54:57.559Z,6.15
2023-01-26T14:57:28.101Z,6.40
2023-01-26T14:59:57.126Z,6.20
2023-01-26T15:02:25.750Z,6.00
2023-01-26T15:04:56.753Z,15.10
2023-01-26T15:07:36.087Z,33.55
2023-01-26T15:10:24.576Z,16.20
2023-01-26T15:12:59.424Z,10.13
2023-01-26T15:15:32.600Z,4.82
2023-01-26T15:18:16.642Z,7.55
2023-01-26T15:20:49.214Z,5.38
2023-01-26T15:23:24.696Z,4.85
2023-01-26T15:25:52.632Z,4.80
2023-01-26T15:28:25.964Z,5.80
2023-01-26T15:30:56.360Z,6.18
2023-01-26T15:33:49.662Z,6.13
2023-01-26T15:36:30.183Z,7.05
2023-01-26T15:39:00.833Z,13.60
2023-01-26T15:41:30.281Z,9.95
2023-01-26T15:46:27.483Z,7.85
2023-01-26T15:48:54.532Z,7.20
2023-01-26T15:51:22.208Z,6.78
2023-01-26T15:53:49.425Z,6.50
2023-01-26T15:56:17.026Z,7.35
2023-01-26T15:58:44.122Z,7.43
2023-01-26T16:01:20.488Z,7.53
2023-01-26T16:03:47.494Z,8.35
2023-01-26T16:06:22.957Z,8.07
2023-01-26T16:08:50.321Z,6.75
2023-01-26T16:11:18.586Z,6.90
2023-01-26T16:13:57.296Z,6.57
2023-01-26T16:16:30.086Z,7.75
2023-01-26T16:18:57.561Z,7.65
2023-01-26T16:21:29.530Z,8.38
2023-01-26T16:23:56.848Z,8.30
2023-01-26T16:26:25.687Z,8.93
2023-01-26T16:28:53.254Z,8.30
2023-01-26T16:31:22.802Z,8.63
2023-01-26T16:33:52.424Z,9.00
2023-01-26T16:36:21.553Z,8.88
2023-01-26T16:38:48.914Z,8.45
2023-01-26T16:41:21.898Z,7.63
2023-01-26T16:43:48.789Z,6.80
2023-01-26T16:46:16.045Z,7.03
2023-01-26T16:48:43.533Z,8.05
2023-01-26T16:51:18.979Z,7.40
2023-01-26T16:53:46.896Z,7.85
2023-01-26T16:56:16.054Z,7.97
2023-01-26T16:58:43.035Z,7.45
2023-01-26T17:01:18.866Z,8.07
2023-01-26T17:03:46.646Z,7.53
2023-01-26T17:06:16.576Z,8.80
2023-01-26T17:08:43.967Z,7.72
2023-01-26T17:11:18.698Z,8.00
2023-01-26T17:13:46.742Z,7.70
2023-01-26T17:16:15.610Z,7.88
2023-01-26T17:18:43.226Z,8.50
2023-01-26T17:21:10.732Z,7.80
2023-01-26T17:23:44.154Z,7.05
2023-01-26T17:26:16.862Z,7.75
2023-01-26T17:28:44.087Z,7.32
2023-01-26T17:31:13.352Z,7.07
2023-01-26T17:36:11.037Z,7.13
2023-01-26T17:38:39.417Z,7.35
2023-01-26T17:41:07.386Z,6.65
2023-01-26T17:43:37.559Z,7.50
2023-01-26T17:46:08.707Z,7.43
2023-01-26T17:48:37.658Z,7.85
2023-01-26T17:53:32.393Z,7.40
2023-01-26T17:56:02.298Z,8.45
2023-01-26T17:58:29.200Z,8.00
2023-01-26T18:00:56.474Z,7.75
2023-01-26T18:03:26.305Z,7.75
2023-01-26T18:05:54.695Z,8.40
2023-01-26T18:08:22.360Z,8.75
2023-01-26T18:10:57.438Z,8.85
2023-01-26T18:13:29.485Z,8.77
2023-01-26T18:15:56.771Z,8.30
2023-01-26T18:18:24.339Z,8.00
2023-01-26T18:20:52.493Z,8.90
2023-01-26T18:23:20.342Z,8.73
2023-01-26T18:25:48.138Z,10.77
2023-01-26T18:28:16.969Z,9.63
2023-01-26T18:30:45.974Z,9.85
2023-01-26T18:33:13.226Z,9.00
2023-01-26T18:35:40.590Z,9.75
2023-01-26T18:38:07.560Z,9.93
2023-01-26T18:40:35.186Z,8.93
2023-01-26T18:43:02.220Z,9.45
2023-01-26T18:45:29.638Z,10.52
2023-01-26T18:47:57.871Z,8.90
2023-01-26T18:50:26.137Z,10.10
2023-01-26T18:52:53.106Z,9.73
2023-01-26T18:55:20.419Z,11.02
2023-01-26T18:57:48.384Z,10.65
2023-01-26T19:00:16.392Z,10.23
2023-01-26T19:02:46.169Z,11.38
2023-01-26T19:05:15.290Z,10.48
2023-01-26T19:07:42.677Z,10.75
2023-01-26T19:10:10.801Z,10.35
2023-01-26T19:12:37.754Z,10.43
2023-01-26T19:15:06.382Z,10.07
2023-01-26T19:17:33.431Z,11.80
2023-01-26T19:20:00.664Z,9.93
2023-01-26T19:22:29.060Z,11.23
2023-01-26T19:24:56.679Z,10.80
2023-01-26T19:27:23.685Z,10.00
2023-01-26T19:29:51.661Z,11.00
2023-01-26T19:32:18.583Z,10.77
2023-01-26T19:34:46.016Z,10.73
2023-01-26T19:37:13.019Z,10.90
2023-01-26T19:39:41.594Z,11.90
2023-01-26T19:42:13.356Z,12.27
2023-01-26T19:44:40.745Z,11.35
2023-01-26T19:47:07.651Z,11.05
2023-01-26T19:49:34.841Z,10.93
2023-01-26T19:52:04.735Z,11.68
2023-01-26T19:54:33.897Z,11.15
2023-01-26T19:57:02.224Z,11.27
2023-01-26T19:59:29.382Z,11.48
2023-01-26T20:01:56.376Z,11.80
2023-01-26T20:04:27.114Z,9.48
2023-01-26T20:06:54.056Z,11.82
2023-01-26T20:09:21.295Z,10.95
2023-01-26T20:11:49.234Z,9.80
2023-01-26T20:14:18.489Z,13.45
2023-01-26T20:16:45.419Z,11.80
2023-01-26T20:19:13.183Z,11.55
2023-01-26T20:21:40.405Z,11.50
2023-01-26T20:24:12.224Z,12.05
2023-01-26T20:26:39.345Z,13.48
2023-01-26T20:29:06.563Z,12.00
2023-01-26T20:31:35.261Z,11.65
2023-01-26T20:34:02.663Z,10.75
2023-01-26T20:36:30.169Z,11.30
2023-01-26T20:38:57.830Z,12.82
2023-01-26T20:41:27.253Z,10.00
2023-01-26T20:44:00.991Z,11.98
2023-01-26T20:46:31.093Z,13.10
2023-01-26T20:49:00.375Z,12.50
2023-01-26T20:51:30.389Z,12.15
2023-01-26T20:53:58.338Z,11.70
2023-01-26T20:56:26.040Z,12.73
2023-01-26T20:58:54.218Z,14.63
2023-01-26T21:01:22.510Z,17.08
2023-01-26T21:03:50.063Z,14.55
2023-01-26T21:06:20.119Z,12.95
2023-01-26T21:08:49.443Z,13.68
2023-01-26T21:11:17.150Z,12.85
2023-01-26T21:13:45.361Z,11.55
2023-01-26T21:16:14.563Z,12.82
2023-01-26T21:18:42.440Z,12.10
2023-01-26T21:21:12.619Z,9.60
2023-01-26T21:23:46.396Z,13.77
2023-01-26T21:26:15.797Z,14.25
2023-01-26T21:28:43.080Z,14.75
2023-01-26T21:31:12.240Z,13.02
2023-01-26T21:33:41.484Z,13.32
2023-01-26T21:36:10.920Z,12.55
2023-01-26T21:38:40.164Z,11.88
2023-01-26T21:41:28.989Z,11.07
2023-01-26T21:43:56.864Z,12.77
2023-01-26T21:46:24.084Z,12.35
2023-01-26T21:48:51.959Z,12.40
2023-01-26T21:51:38.106Z,11.65
2023-01-26T21:54:08.624Z,11.82
2023-01-26T21:56:37.333Z,11.10
2023-01-26T21:59:07.593Z,9.75
2023-01-26T22:01:36.527Z,11.32
2023-01-26T22:04:07.710Z,12.00
2023-01-26T22:06:35.780Z,10.85
2023-01-26T22:09:03.143Z,11.83
2023-01-26T22:11:30.096Z,11.23
2023-01-26T22:13:58.683Z,12.43
2023-01-26T22:16:25.933Z,12.00
2023-01-26T22:18:53.215Z,9.93
2023-01-26T22:21:20.252Z,11.85
2023-01-26T22:23:47.729Z,12.00
2023-01-26T22:26:16.574Z,11.13
2023-01-26T22:31:20.164Z,10.48
2023-01-26T22:33:47.727Z,9.93
2023-01-26T22:36:15.592Z,11.00
2023-01-26T22:38:43.189Z,10.65
2023-01-26T22:41:15.447Z,10.93
2023-01-26T22:43:43.040Z,10.82
2023-01-26T22:46:11.663Z,11.23
2023-01-26T22:48:40.655Z,10.93
2023-01-26T22:51:08.069Z,10.07
2023-01-26T22:53:36.043Z,9.32
2023-01-26T22:56:03.620Z,11.90
2023-01-26T22:58:33.262Z,9.82
2023-01-26T23:01:07.965Z,10.50
2023-01-26T23:03:35.511Z,10.65
2023-01-26T23:06:05.394Z,10.85
2023-01-26T23:08:32.986Z,10.35
2023-01-26T23:11:05.484Z,12.32
2023-01-26T23:13:33.135Z,11.70
2023-01-26T23:16:00.219Z,11.13
2023-01-26T23:18:27.631Z,10.95
2023-01-26T23:20:55.806Z,11.60
2023-01-26T23:23:24.698Z,11.35
2023-01-26T23:25:51.966Z,11.10
2023-01-26T23:28:20.817Z,10.25
2023-01-26T23:30:48.462Z,11.05
2023-01-26T23:33:17.441Z,9.48
2023-01-26T23:35:44.629Z,10.82
2023-01-26T23:38:12.162Z,10.23
2023-01-26T23:40:40.804Z,10.45
2023-01-26T23:43:16.737Z,10.35
2023-01-26T23:45:45.237Z,10.27
2023-01-26T23:48:12.965Z,10.57
2023-01-26T23:50:40.552Z,9.93
2023-01-26T23:53:08.208Z,10.20
2023-01-26T23:55:35.962Z,9.50
2023-01-26T23:58:04.589Z,8.93
